createdAt,value
2022-11-23T00:01:32.907Z,76.34
2022-11-23T00:04:08.969Z,76.27
2022-11-23T00:06:39.694Z,76.21
2022-11-23T00:09:27.484Z,76.58
2022-11-23T00:11:56.744Z,76.43
2022-11-23T00:14:23.928Z,76.43
2022-11-23T00:16:51.007Z,76.05
2022-11-23T00:19:18.011Z,76.02
2022-11-23T00:21:45.018Z,76.49
2022-11-23T00:24:15.095Z,76.36
2022-11-23T00:26:50.360Z,76.25
2022-11-23T00:29:17.307Z,76.15
2022-11-23T00:31:44.298Z,76.25
2022-11-23T00:34:13.551Z,76.25
2022-11-23T00:36:40.470Z,76.14
2022-11-23T00:39:07.771Z,76.20
2022-11-23T00:41:41.005Z,76.29
2022-11-23T00:44:08.765Z,76.14
2022-11-23T00:46:36.569Z,76.09
2022-11-23T00:49:06.929Z,76.36
2022-11-23T00:51:38.366Z,76.53
2022-11-23T00:54:10.046Z,76.46
2022-11-23T00:56:40.903Z,76.39
2022-11-23T00:59:07.850Z,75.96
2022-11-23T01:01:37.401Z,76.07
2022-11-23T01:04:07.129Z,76.32
2022-11-23T01:06:38.463Z,76.11
2022-11-23T01:09:18.013Z,76.05
2022-11-23T01:11:45.666Z,76.26
2022-11-23T01:14:13.489Z,75.96
2022-11-23T01:16:45.450Z,76.25
2022-11-23T01:19:17.569Z,76.06
2022-11-23T01:21:48.112Z,76.04
2022-11-23T01:24:22.056Z,76.19
2022-11-23T01:26:53.875Z,76.19
2022-11-23T01:29:21.726Z,75.97
2022-11-23T01:31:51.652Z,75.91
2022-11-23T01:34:18.967Z,76.14
2022-11-23T01:36:52.686Z,76.31
2022-11-23T01:39:21.599Z,75.92
2022-11-23T01:41:52.434Z,76.08
2022-11-23T01:44:34.098Z,76.36
2022-11-23T01:47:06.341Z,76.01
2022-11-23T01:49:52.015Z,75.98
2022-11-23T01:52:23.911Z,75.95
2022-11-23T01:54:55.167Z,75.84
2022-11-23T01:57:37.968Z,76.33
2022-11-23T02:00:07.334Z,76.09
2022-11-23T02:02:43.170Z,76.53
2022-11-23T02:05:11.156Z,76.13
2022-11-23T02:07:39.697Z,76.18
2022-11-23T02:10:07.335Z,76.15
2022-11-23T02:12:34.349Z,76.16
2022-11-23T02:15:02.763Z,76.22
2022-11-23T02:17:30.827Z,76.25
2022-11-23T02:20:08.466Z,76.41
2022-11-23T02:22:47.780Z,76.17
2022-11-23T02:25:44.483Z,76.22
2022-11-23T02:28:15.103Z,76.14
2022-11-23T02:33:28.083Z,76.38
2022-11-23T02:36:02.464Z,76.02
2022-11-23T02:38:34.241Z,76.42
2022-11-23T02:41:01.527Z,76.24
2022-11-23T02:43:28.728Z,76.41
2022-11-23T02:46:01.496Z,76.06
2022-11-23T02:48:30.016Z,76.20
2022-11-23T02:50:57.078Z,75.99
2022-11-23T02:53:24.611Z,76.03
2022-11-23T02:55:53.121Z,76.26
2022-11-23T02:58:20.180Z,75.93
2022-11-23T03:00:47.370Z,76.11
2022-11-23T03:03:18.192Z,76.22
2022-11-23T03:05:45.220Z,76.32
2022-11-23T03:08:12.291Z,75.93
2022-11-23T03:10:40.637Z,76.16
2022-11-23T03:13:07.867Z,75.93
2022-11-23T03:15:37.504Z,75.70
2022-11-23T03:18:05.668Z,75.59
2022-11-23T03:20:33.172Z,75.77
2022-11-23T03:23:00.282Z,75.70
2022-11-23T03:25:27.425Z,75.88
2022-11-23T03:28:00.113Z,75.80
2022-11-23T03:30:27.718Z,76.07
2022-11-23T03:32:54.933Z,75.76
2022-11-23T03:35:23.788Z,75.74
2022-11-23T03:38:14.061Z,76.12
2022-11-23T03:40:45.779Z,75.64
2022-11-23T03:43:28.037Z,76.26
2022-11-23T03:45:54.989Z,76.11
2022-11-23T03:48:23.035Z,76.06
2022-11-23T03:50:52.363Z,76.23
2022-11-23T03:53:19.298Z,76.10
2022-11-23T03:55:47.295Z,75.94
2022-11-23T03:58:15.164Z,76.33
2022-11-23T04:00:42.577Z,76.54
2022-11-23T04:03:34.154Z,76.28
2022-11-23T04:06:11.253Z,76.30
2022-11-23T04:08:47.417Z,75.88
2022-11-23T04:11:21.916Z,76.05
2022-11-23T04:13:50.974Z,76.02
2022-11-23T04:16:19.178Z,76.15
2022-11-23T04:18:46.317Z,76.13
2022-11-23T04:21:13.406Z,75.99
2022-11-23T04:23:40.394Z,76.20
2022-11-23T04:26:10.322Z,75.80
2022-11-23T04:28:40.885Z,76.34
2022-11-23T04:31:08.154Z,76.11
2022-11-23T04:33:45.963Z,76.36
2022-11-23T04:36:15.450Z,76.16
2022-11-23T04:38:44.815Z,76.04
2022-11-23T04:41:15.971Z,76.29
2022-11-23T04:43:43.136Z,76.44
2022-11-23T04:46:12.382Z,76.35
2022-11-23T04:48:39.595Z,76.29
2022-11-23T04:51:07.606Z,76.70
2022-11-23T04:53:37.680Z,76.40
2022-11-23T04:56:05.617Z,76.27
2022-11-23T04:58:36.899Z,76.45
2022-11-23T05:01:05.608Z,76.41
2022-11-23T05:03:36.493Z,76.55
2022-11-23T05:06:07.518Z,76.37
2022-11-23T05:09:11.852Z,77.00
2022-11-23T05:11:59.315Z,76.50
2022-11-23T05:14:27.347Z,76.39
2022-11-23T05:16:54.670Z,76.58
2022-11-23T05:19:21.810Z,76.52
2022-11-23T05:21:49.029Z,76.83
2022-11-23T05:24:16.397Z,76.64
2022-11-23T05:26:56.297Z,76.55
2022-11-23T05:29:23.691Z,76.79
2022-11-23T05:31:50.699Z,76.74
2022-11-23T05:34:18.465Z,76.89
2022-11-23T05:36:46.841Z,76.70
2022-11-23T05:39:16.119Z,76.65
2022-11-23T05:41:44.355Z,76.97
2022-11-23T05:44:25.814Z,76.77
2022-11-23T05:46:54.148Z,76.80
2022-11-23T05:49:21.863Z,76.93
2022-11-23T05:51:49.048Z,76.93
2022-11-23T05:54:16.999Z,76.82
2022-11-23T05:56:58.930Z,77.15
2022-11-23T05:59:36.263Z,76.75
2022-11-23T06:02:03.964Z,76.91
2022-11-23T06:04:35.436Z,77.16
2022-11-23T06:07:03.353Z,76.87
2022-11-23T06:09:39.551Z,76.85
2022-11-23T06:12:09.517Z,76.75
2022-11-23T06:14:36.684Z,76.60
2022-11-23T06:17:06.158Z,76.74
2022-11-23T06:19:44.688Z,76.69
2022-11-23T06:22:12.497Z,77.23
2022-11-23T06:24:51.253Z,76.70
2022-11-23T06:27:58.841Z,76.67
2022-11-23T06:30:30.939Z,76.67
2022-11-23T06:33:04.904Z,76.51
2022-11-23T06:35:37.730Z,76.70
2022-11-23T06:38:04.974Z,77.22
2022-11-23T06:40:34.008Z,76.81
2022-11-23T06:43:01.390Z,77.26
2022-11-23T06:45:37.580Z,76.75
2022-11-23T06:48:09.282Z,76.70
2022-11-23T06:50:41.729Z,76.79
2022-11-23T06:53:12.336Z,76.93
2022-11-23T06:56:02.644Z,76.70
2022-11-23T06:58:31.374Z,76.65
2022-11-23T07:01:06.757Z,76.96
2022-11-23T07:03:40.920Z,76.76
2022-11-23T07:06:24.109Z,76.82
2022-11-23T07:08:55.968Z,76.77
2022-11-23T07:11:32.663Z,76.82
2022-11-23T07:14:00.556Z,76.58
2022-11-23T07:16:29.826Z,76.39
2022-11-23T07:19:01.097Z,76.37
2022-11-23T07:21:28.312Z,76.25
2022-11-23T07:23:56.190Z,76.62
2022-11-23T07:26:23.295Z,76.71
2022-11-23T07:28:50.410Z,76.35
2022-11-23T07:31:17.619Z,76.16
2022-11-23T07:33:45.837Z,76.66
2022-11-23T07:36:13.459Z,76.37
2022-11-23T07:38:42.735Z,76.43
2022-11-23T07:41:11.546Z,76.48
2022-11-23T07:44:05.689Z,76.62
2022-11-23T07:46:32.713Z,76.43
2022-11-23T07:49:02.403Z,76.23
2022-11-23T07:51:30.109Z,76.80
2022-11-23T07:53:57.840Z,76.19
2022-11-23T07:56:25.078Z,76.18
2022-11-23T07:58:52.274Z,76.29
2022-11-23T08:01:20.355Z,76.49
2022-11-23T08:03:48.652Z,76.35
2022-11-23T08:06:16.216Z,76.59
2022-11-23T08:08:43.481Z,76.50
2022-11-23T08:11:11.233Z,76.48
2022-11-23T08:13:39.455Z,76.46
2022-11-23T08:16:06.802Z,76.51
2022-11-23T08:18:33.795Z,76.69
2022-11-23T08:21:01.708Z,76.44
2022-11-23T08:23:29.893Z,76.17
2022-11-23T08:25:57.761Z,75.76
2022-11-23T08:28:24.814Z,76.05
2022-11-23T08:30:51.915Z,75.79
2022-11-23T08:33:19.057Z,75.83
2022-11-23T08:35:46.089Z,76.11
2022-11-23T08:38:13.407Z,75.89
2022-11-23T08:40:41.077Z,76.00
2022-11-23T08:43:08.339Z,75.88
2022-11-23T08:45:35.416Z,75.55
2022-11-23T08:48:03.674Z,75.64
2022-11-23T08:50:31.487Z,75.85
2022-11-23T08:52:59.731Z,75.73
2022-11-23T08:55:28.081Z,75.75
2022-11-23T08:57:56.585Z,75.95
2022-11-23T09:00:24.364Z,75.55
2022-11-23T09:02:51.534Z,75.60
2022-11-23T09:05:18.506Z,75.50
2022-11-23T09:07:45.447Z,75.45
2022-11-23T09:10:17.720Z,75.47
2022-11-23T09:12:45.303Z,75.52
2022-11-23T09:15:12.427Z,75.28
2022-11-23T09:17:39.374Z,75.17
2022-11-23T09:20:07.220Z,75.46
2022-11-23T09:22:34.334Z,75.27
2022-11-23T09:25:01.422Z,75.45
2022-11-23T09:27:30.087Z,75.09
2022-11-23T09:29:57.035Z,75.07
2022-11-23T09:32:24.139Z,75.36
2022-11-23T09:34:51.157Z,75.26
2022-11-23T09:37:18.493Z,75.50
2022-11-23T09:39:45.494Z,75.46
2022-11-23T09:42:33.808Z,75.12
2022-11-23T09:45:19.742Z,75.38
2022-11-23T09:47:54.304Z,75.51
2022-11-23T09:50:28.823Z,75.09
2022-11-23T09:52:55.873Z,75.15
2022-11-23T09:55:51.897Z,75.05
2022-11-23T09:58:22.512Z,75.09
2022-11-23T10:01:16.895Z,75.16
2022-11-23T10:03:49.319Z,75.68
2022-11-23T10:06:27.335Z,75.48
2022-11-23T10:09:32.364Z,75.45
2022-11-23T10:12:11.387Z,75.40
2022-11-23T10:14:51.249Z,75.16
2022-11-23T10:17:39.968Z,75.26
2022-11-23T10:20:29.944Z,75.06
2022-11-23T10:23:02.013Z,75.16
2022-11-23T10:25:39.788Z,75.17
2022-11-23T10:28:13.887Z,74.98
2022-11-23T10:30:41.218Z,75.42
2022-11-23T10:33:31.703Z,75.06
2022-11-23T10:35:58.944Z,75.23
2022-11-23T10:38:27.803Z,74.87
2022-11-23T10:41:00.902Z,75.08
2022-11-23T10:43:38.512Z,75.09
2022-11-23T10:46:23.849Z,74.61
2022-11-23T10:48:52.386Z,75.13
2022-11-23T10:51:33.663Z,74.98
2022-11-23T10:54:05.684Z,75.02
2022-11-23T10:56:34.611Z,75.40
2022-11-23T10:59:01.712Z,75.35
2022-11-23T11:01:30.455Z,75.58
2022-11-23T11:04:06.755Z,75.73
2022-11-23T11:06:36.298Z,75.74
2022-11-23T11:09:20.065Z,75.73
2022-11-23T11:11:52.277Z,75.25
2022-11-23T11:14:23.658Z,75.20
2022-11-23T11:16:53.513Z,75.37
2022-11-23T11:19:34.802Z,75.66
2022-11-23T11:22:23.119Z,75.13
2022-11-23T11:24:50.302Z,75.37
2022-11-23T11:27:21.726Z,75.41
2022-11-23T11:29:55.489Z,75.26
2022-11-23T11:32:28.526Z,75.56
2022-11-23T11:35:01.620Z,75.95
2022-11-23T11:37:50.980Z,75.71
2022-11-23T11:40:50.779Z,75.93
2022-11-23T11:43:54.133Z,75.58
2022-11-23T11:47:16.917Z,76.10
2022-11-23T11:49:47.520Z,75.97
2022-11-23T11:52:22.468Z,75.65
2022-11-23T11:55:04.815Z,76.04
2022-11-23T11:57:42.445Z,75.82
2022-11-23T12:00:19.445Z,75.33
2022-11-23T12:03:20.338Z,76.14
2022-11-23T12:05:51.320Z,75.74
2022-11-23T12:08:48.357Z,76.02
2022-11-23T12:11:15.892Z,76.12
2022-11-23T12:13:47.046Z,75.89
2022-11-23T12:16:26.797Z,75.84
2022-11-23T12:19:21.075Z,75.98
2022-11-23T12:22:22.490Z,76.08
2022-11-23T12:25:04.679Z,76.03
2022-11-23T12:28:01.032Z,76.03
2022-11-23T12:30:31.589Z,76.15
2022-11-23T12:33:07.672Z,76.04
2022-11-23T12:36:07.458Z,75.60
2022-11-23T12:38:53.875Z,75.57
2022-11-23T12:41:39.513Z,75.65
2022-11-23T12:44:19.155Z,75.38
2022-11-23T12:46:51.508Z,75.57
2022-11-23T12:49:38.756Z,75.55
2022-11-23T12:52:50.226Z,75.00
2022-11-23T12:55:35.915Z,75.03
2022-11-23T12:58:19.859Z,75.44
2022-11-23T13:00:58.486Z,75.36
2022-11-23T13:04:06.677Z,75.76
2022-11-23T13:07:31.961Z,75.99
2022-11-23T13:10:16.198Z,75.76
2022-11-23T13:12:55.392Z,75.53
2022-11-23T13:15:44.371Z,75.49
2022-11-23T13:18:34.989Z,75.96
2022-11-23T13:21:30.624Z,76.01
2022-11-23T13:23:58.100Z,75.92
2022-11-23T13:26:28.604Z,76.05
2022-11-23T13:28:58.686Z,75.96
2022-11-23T13:31:31.728Z,75.98
2022-11-23T13:34:01.970Z,75.80
2022-11-23T13:37:10.592Z,76.04
2022-11-23T13:39:44.410Z,76.46
2022-11-23T13:42:12.301Z,76.24
2022-11-23T13:44:42.348Z,75.95
2022-11-23T13:47:15.112Z,76.34
2022-11-23T13:49:48.281Z,76.21
2022-11-23T13:52:22.193Z,76.10
2022-11-23T13:55:13.576Z,75.95
2022-11-23T13:57:42.908Z,76.03
2022-11-23T14:00:49.096Z,75.91
2022-11-23T14:03:44.852Z,75.98
2022-11-23T14:06:36.647Z,75.90
2022-11-23T14:09:32.341Z,75.84
2022-11-23T14:12:11.726Z,75.90
2022-11-23T14:15:24.985Z,76.33
2022-11-23T14:18:08.170Z,75.91
2022-11-23T14:21:08.598Z,75.71
2022-11-23T14:24:00.715Z,75.83
2022-11-23T14:26:37.423Z,75.69
2022-11-23T14:29:34.388Z,75.75
2022-11-23T14:32:19.750Z,75.87
2022-11-23T14:35:15.768Z,76.04
2022-11-23T14:38:32.130Z,75.91
2022-11-23T14:41:16.809Z,76.35
2022-11-23T14:43:47.633Z,76.01
2022-11-23T14:46:28.452Z,76.32
2022-11-23T14:49:10.858Z,76.35
2022-11-23T14:51:49.915Z,76.23
2022-11-23T14:54:17.646Z,76.17
2022-11-23T14:56:47.817Z,76.47
2022-11-23T14:59:18.540Z,76.83
2022-11-23T15:01:52.398Z,77.04
2022-11-23T15:05:07.044Z,77.17
2022-11-23T15:08:11.683Z,76.94
2022-11-23T15:10:39.123Z,77.08
2022-11-23T15:13:27.284Z,77.19
2022-11-23T15:15:56.731Z,77.03
2022-11-23T15:18:33.088Z,77.22
2022-11-23T15:21:26.863Z,76.90
2022-11-23T15:23:58.000Z,77.12
2022-11-23T15:26:48.970Z,77.02
2022-11-23T15:29:37.312Z,77.02
2022-11-23T15:32:30.376Z,77.09
2022-11-23T15:35:03.631Z,77.07
2022-11-23T15:37:33.377Z,77.32
2022-11-23T15:40:06.855Z,77.07
2022-11-23T15:42:34.254Z,77.81
2022-11-23T15:45:17.520Z,77.06
2022-11-23T15:47:46.503Z,76.72
2022-11-23T15:50:17.768Z,77.00
2022-11-23T15:52:50.223Z,77.28
2022-11-23T15:55:21.631Z,76.79
2022-11-23T15:57:59.466Z,76.76
2022-11-23T16:00:29.916Z,76.85
2022-11-23T16:03:40.713Z,76.93
2022-11-23T16:06:14.315Z,76.79
2022-11-23T16:08:45.187Z,77.23
2022-11-23T16:11:33.859Z,77.19
2022-11-23T16:14:31.695Z,76.97
2022-11-23T16:17:26.155Z,77.31
2022-11-23T16:20:00.861Z,77.45
2022-11-23T16:22:38.931Z,77.40
2022-11-23T16:25:09.633Z,77.14
2022-11-23T16:27:40.435Z,77.24
2022-11-23T16:30:24.699Z,77.51
2022-11-23T16:32:54.635Z,77.45
2022-11-23T16:35:22.780Z,77.36
2022-11-23T16:37:52.794Z,77.77
2022-11-23T16:40:20.370Z,77.40
2022-11-23T16:42:55.592Z,77.56
2022-11-23T16:45:23.524Z,77.38
2022-11-23T16:48:05.155Z,77.65
2022-11-23T16:50:34.709Z,77.33
2022-11-23T16:53:15.371Z,77.34
2022-11-23T16:55:43.931Z,77.71
2022-11-23T16:58:24.789Z,77.29
2022-11-23T17:00:57.667Z,77.61
2022-11-23T17:03:27.827Z,77.53
2022-11-23T17:05:57.960Z,77.33
2022-11-23T17:08:37.096Z,77.27
2022-11-23T17:11:17.898Z,77.42
2022-11-23T17:13:57.124Z,76.92
2022-11-23T17:16:27.315Z,77.14
2022-11-23T17:18:57.691Z,76.85
2022-11-23T17:21:25.386Z,76.82
2022-11-23T17:23:54.066Z,77.13
2022-11-23T17:26:35.809Z,76.83
2022-11-23T17:29:06.801Z,77.00
2022-11-23T17:31:38.087Z,77.20
2022-11-23T17:34:14.113Z,77.19
2022-11-23T17:36:44.836Z,77.27
2022-11-23T17:39:28.805Z,77.51
2022-11-23T17:42:05.087Z,77.43
2022-11-23T17:44:42.384Z,77.11
2022-11-23T17:47:23.909Z,78.00
2022-11-23T17:50:02.448Z,77.12
2022-11-23T17:53:25.412Z,77.33
2022-11-23T17:55:49.732Z,77.56
2022-11-23T17:58:17.276Z,77.53
2022-11-23T18:00:44.714Z,77.38
2022-11-23T18:03:15.052Z,76.92
2022-11-23T18:05:48.201Z,77.24
2022-11-23T18:08:15.304Z,77.09
2022-11-23T18:10:42.693Z,77.31
2022-11-23T18:13:09.808Z,77.48
2022-11-23T18:15:37.408Z,77.37
2022-11-23T18:18:07.684Z,77.34
2022-11-23T18:20:34.835Z,77.67
2022-11-23T18:23:02.589Z,77.97
2022-11-23T18:25:32.693Z,77.61
2022-11-23T18:28:00.492Z,77.52
2022-11-23T18:30:36.022Z,77.95
2022-11-23T18:33:03.771Z,77.88
2022-11-23T18:35:33.690Z,77.79
2022-11-23T18:38:01.278Z,77.77
2022-11-23T18:40:33.368Z,77.99
2022-11-23T18:43:01.307Z,77.76
2022-11-23T18:45:29.138Z,77.88
2022-11-23T18:47:56.710Z,77.57
2022-11-23T18:50:24.131Z,77.60
2022-11-23T18:52:51.632Z,77.79
2022-11-23T18:55:19.251Z,77.63
2022-11-23T18:57:56.066Z,77.81
2022-11-23T19:00:26.247Z,77.37
2022-11-23T19:02:57.847Z,77.62
2022-11-23T19:05:33.307Z,77.32
2022-11-23T19:08:06.529Z,77.17
2022-11-23T19:10:36.111Z,77.60
2022-11-23T19:13:07.088Z,77.29
2022-11-23T19:15:34.788Z,77.09
2022-11-23T19:18:04.502Z,76.78
2022-11-23T19:20:35.935Z,77.22
2022-11-23T19:23:02.969Z,77.06
2022-11-23T19:25:35.184Z,76.95
2022-11-23T19:28:08.707Z,76.98
2022-11-23T19:30:38.330Z,77.24
2022-11-23T19:33:06.083Z,77.00
2022-11-23T19:35:33.807Z,77.13
2022-11-23T19:38:03.542Z,76.97
2022-11-23T19:40:36.843Z,76.86
2022-11-23T19:43:10.185Z,76.90
2022-11-23T19:45:38.456Z,77.07
2022-11-23T19:48:08.901Z,77.30
2022-11-23T19:50:36.438Z,77.25
2022-11-23T19:53:12.194Z,77.03
2022-11-23T19:56:12.394Z,76.87
2022-11-23T19:58:39.813Z,77.30
2022-11-23T20:01:17.888Z,77.05
2022-11-23T20:03:55.102Z,77.12
2022-11-23T20:06:28.708Z,76.93
2022-11-23T20:09:08.515Z,76.69
2022-11-23T20:11:44.782Z,76.72
2022-11-23T20:14:19.522Z,76.84
2022-11-23T20:16:49.495Z,77.02
2022-11-23T20:19:19.596Z,77.18
2022-11-23T20:21:52.820Z,77.19
2022-11-23T20:24:25.562Z,77.19
2022-11-23T20:26:54.154Z,76.47
2022-11-23T20:29:23.858Z,76.40
2022-11-23T20:31:55.028Z,76.72
2022-11-23T20:34:26.466Z,76.44
2022-11-23T20:36:53.697Z,76.47
2022-11-23T20:39:23.317Z,76.38
2022-11-23T20:41:50.367Z,76.51
2022-11-23T20:44:21.133Z,76.92
2022-11-23T20:47:01.747Z,76.56
2022-11-23T20:49:35.649Z,76.34
2022-11-23T20:52:03.893Z,76.31
2022-11-23T20:54:43.550Z,76.53
2022-11-23T20:57:17.568Z,76.57
2022-11-23T21:00:05.704Z,75.89
2022-11-23T21:02:33.075Z,76.21
2022-11-23T21:05:00.403Z,76.50
2022-11-23T21:07:27.523Z,76.07
2022-11-23T21:09:56.543Z,76.35
2022-11-23T21:12:47.631Z,75.87
2022-11-23T21:15:20.222Z,76.02
2022-11-23T21:17:49.889Z,76.38
2022-11-23T21:20:17.319Z,75.71
2022-11-23T21:22:44.623Z,75.70
2022-11-23T21:25:13.671Z,75.88
2022-11-23T21:27:42.430Z,75.54
2022-11-23T21:30:10.583Z,75.73
2022-11-23T21:32:37.818Z,76.03
2022-11-23T21:35:07.878Z,75.63
2022-11-23T21:37:34.998Z,76.21
2022-11-23T21:40:08.684Z,76.10
2022-11-23T21:42:38.095Z,76.07
2022-11-23T21:45:05.588Z,76.20
2022-11-23T21:47:32.583Z,76.37
2022-11-23T21:50:07.191Z,76.20
2022-11-23T21:52:34.278Z,76.41
2022-11-23T21:55:01.388Z,76.31
2022-11-23T21:57:30.163Z,75.82
2022-11-23T22:00:01.819Z,75.97
2022-11-23T22:02:39.463Z,76.15
2022-11-23T22:05:09.047Z,76.14
2022-11-23T22:07:36.180Z,76.18
2022-11-23T22:10:06.674Z,76.36
2022-11-23T22:12:36.356Z,76.29
2022-11-23T22:15:06.646Z,76.63
2022-11-23T22:17:35.731Z,76.01
2022-11-23T22:20:02.830Z,76.52
2022-11-23T22:22:33.427Z,75.85
2022-11-23T22:25:04.761Z,75.86
2022-11-23T22:27:31.841Z,76.07
2022-11-23T22:30:02.270Z,75.98
2022-11-23T22:32:31.688Z,75.98
2022-11-23T22:35:01.904Z,75.92
2022-11-23T22:37:32.592Z,75.89
2022-11-23T22:40:02.807Z,75.74
2022-11-23T22:42:30.052Z,75.74
2022-11-23T22:44:57.313Z,75.75
2022-11-23T22:47:29.419Z,75.60
2022-11-23T22:49:56.531Z,75.87
2022-11-23T22:52:26.019Z,75.85
2022-11-23T22:54:55.645Z,75.55
2022-11-23T22:57:25.852Z,75.55
2022-11-23T22:59:53.561Z,75.83
2022-11-23T23:02:20.959Z,75.63
2022-11-23T23:04:48.270Z,75.67
2022-11-23T23:07:15.396Z,75.83
2022-11-23T23:09:43.078Z,75.86
2022-11-23T23:12:11.838Z,75.74
2022-11-23T23:14:38.914Z,75.63
2022-11-23T23:17:06.121Z,75.67
2022-11-23T23:19:33.199Z,75.30
2022-11-23T23:22:00.324Z,75.63
2022-11-23T23:24:27.592Z,75.34
2022-11-23T23:26:55.830Z,75.50
2022-11-23T23:29:22.969Z,75.32
2022-11-23T23:31:50.272Z,75.55
2022-11-23T23:34:23.962Z,75.16
2022-11-23T23:36:50.999Z,74.83
2022-11-23T23:39:20.465Z,75.55
2022-11-23T23:41:48.134Z,75.35
2022-11-23T23:44:15.265Z,75.22
2022-11-23T23:46:47.076Z,74.74
2022-11-23T23:49:14.962Z,75.16
2022-11-23T23:51:50.126Z,75.08
2022-11-23T23:54:18.884Z,75.01
2022-11-23T23:56:45.996Z,75.46
2022-11-23T23:59:20.374Z,74.96
